sensor_id;sensor_type;location;lat;lon;timestamp;P1;durP1;ratioP1;P2;durP2;ratioP2
51614;SDS011;37695;52.960;6.188;2023-05-16T00:02:15;11.60;;;2.40;;
51614;SDS011;37695;52.960;6.188;2023-05-16T00:04:43;8.20;;;1.73;;
51614;SDS011;37695;52.960;6.188;2023-05-16T00:07:10;10.07;;;2.47;;
51614;SDS011;37695;52.960;6.188;2023-05-16T00:09:35;8.27;;;2.75;;
51614;SDS011;37695;52.960;6.188;2023-05-16T00:12:01;11.02;;;2.53;;
51614;SDS011;37695;52.960;6.188;2023-05-16T00:14:27;8.63;;;1.83;;
51614;SDS011;37695;52.960;6.188;2023-05-16T00:16:53;11.73;;;2.35;;
51614;SDS011;37695;52.960;6.188;2023-05-16T00:19:18;10.35;;;2.33;;
51614;SDS011;37695;52.960;6.188;2023-05-16T00:21:44;6.93;;;2.00;;
51614;SDS011;37695;52.960;6.188;2023-05-16T00:24:10;10.07;;;2.17;;
51614;SDS011;37695;52.960;6.188;2023-05-16T00:26:35;10.48;;;2.30;;
51614;SDS011;37695;52.960;6.188;2023-05-16T00:29:01;12.98;;;2.40;;
51614;SDS011;37695;52.960;6.188;2023-05-16T00:31:27;9.10;;;2.70;;
51614;SDS011;37695;52.960;6.188;2023-05-16T00:33:52;8.82;;;2.38;;
51614;SDS011;37695;52.960;6.188;2023-05-16T00:36:19;10.20;;;2.20;;
51614;SDS011;37695;52.960;6.188;2023-05-16T00:38:45;8.80;;;2.38;;
51614;SDS011;37695;52.960;6.188;2023-05-16T00:41:11;10.93;;;2.03;;
51614;SDS011;37695;52.960;6.188;2023-05-16T00:43:37;12.30;;;2.45;;
51614;SDS011;37695;52.960;6.188;2023-05-16T00:46:03;8.90;;;1.83;;
51614;SDS011;37695;52.960;6.188;2023-05-16T00:48:29;13.27;;;2.28;;
51614;SDS011;37695;52.960;6.188;2023-05-16T00:50:55;9.30;;;2.42;;
51614;SDS011;37695;52.960;6.188;2023-05-16T00:53:22;9.93;;;2.25;;
51614;SDS011;37695;52.960;6.188;2023-05-16T00:55:48;9.40;;;1.95;;
51614;SDS011;37695;52.960;6.188;2023-05-16T00:58:14;8.80;;;2.00;;
51614;SDS011;37695;52.960;6.188;2023-05-16T01:00:40;9.93;;;2.20;;
51614;SDS011;37695;52.960;6.188;2023-05-16T01:03:06;9.45;;;2.13;;
51614;SDS011;37695;52.960;6.188;2023-05-16T01:05:32;8.25;;;2.35;;
51614;SDS011;37695;52.960;6.188;2023-05-16T01:07:58;4.95;;;1.73;;
51614;SDS011;37695;52.960;6.188;2023-05-16T01:10:24;7.93;;;1.90;;
51614;SDS011;37695;52.960;6.188;2023-05-16T01:13:10;8.45;;;2.22;;
51614;SDS011;37695;52.960;6.188;2023-05-16T01:15:46;11.00;;;2.17;;
51614;SDS011;37695;52.960;6.188;2023-05-16T01:20:55;9.20;;;1.98;;
51614;SDS011;37695;52.960;6.188;2023-05-16T01:26:22;12.93;;;2.22;;
51614;SDS011;37695;52.960;6.188;2023-05-16T01:28:51;10.07;;;2.03;;
51614;SDS011;37695;52.960;6.188;2023-05-16T01:31:17;10.65;;;2.47;;
51614;SDS011;37695;52.960;6.188;2023-05-16T01:33:43;11.57;;;2.42;;
51614;SDS011;37695;52.960;6.188;2023-05-16T01:39:09;12.93;;;2.10;;
51614;SDS011;37695;52.960;6.188;2023-05-16T01:41:42;11.15;;;2.33;;
51614;SDS011;37695;52.960;6.188;2023-05-16T01:46:57;7.88;;;1.77;;
51614;SDS011;37695;52.960;6.188;2023-05-16T01:49:30;10.23;;;1.88;;
51614;SDS011;37695;52.960;6.188;2023-05-16T01:52:01;7.20;;;1.80;;
51614;SDS011;37695;52.960;6.188;2023-05-16T01:54:31;9.52;;;1.92;;
51614;SDS011;37695;52.960;6.188;2023-05-16T01:57:00;8.93;;;1.73;;
51614;SDS011;37695;52.960;6.188;2023-05-16T01:59:28;8.30;;;2.13;;
51614;SDS011;37695;52.960;6.188;2023-05-16T02:01:55;10.30;;;2.40;;
51614;SDS011;37695;52.960;6.188;2023-05-16T02:04:21;8.75;;;2.00;;
51614;SDS011;37695;52.960;6.188;2023-05-16T02:06:48;9.88;;;2.05;;
51614;SDS011;37695;52.960;6.188;2023-05-16T02:09:15;7.75;;;1.95;;
51614;SDS011;37695;52.960;6.188;2023-05-16T02:11:40;6.32;;;1.90;;
51614;SDS011;37695;52.960;6.188;2023-05-16T02:14:06;10.77;;;2.20;;
51614;SDS011;37695;52.960;6.188;2023-05-16T02:16:32;9.10;;;2.45;;
51614;SDS011;37695;52.960;6.188;2023-05-16T02:18:58;6.65;;;1.80;;
51614;SDS011;37695;52.960;6.188;2023-05-16T02:21:23;10.93;;;2.35;;
51614;SDS011;37695;52.960;6.188;2023-05-16T02:23:49;12.45;;;1.75;;
51614;SDS011;37695;52.960;6.188;2023-05-16T02:26:15;9.68;;;2.15;;
51614;SDS011;37695;52.960;6.188;2023-05-16T02:28:40;11.88;;;2.08;;
51614;SDS011;37695;52.960;6.188;2023-05-16T02:31:06;10.82;;;2.22;;
51614;SDS011;37695;52.960;6.188;2023-05-16T02:33:32;6.80;;;1.85;;
51614;SDS011;37695;52.960;6.188;2023-05-16T02:35:58;8.07;;;1.88;;
51614;SDS011;37695;52.960;6.188;2023-05-16T02:38:24;10.45;;;2.08;;
51614;SDS011;37695;52.960;6.188;2023-05-16T02:40:49;10.25;;;3.25;;
51614;SDS011;37695;52.960;6.188;2023-05-16T02:43:15;7.70;;;2.45;;
51614;SDS011;37695;52.960;6.188;2023-05-16T02:45:41;13.43;;;2.28;;
51614;SDS011;37695;52.960;6.188;2023-05-16T02:48:06;7.75;;;2.10;;
51614;SDS011;37695;52.960;6.188;2023-05-16T02:50:32;12.63;;;1.77;;
51614;SDS011;37695;52.960;6.188;2023-05-16T02:52:58;9.95;;;2.58;;
51614;SDS011;37695;52.960;6.188;2023-05-16T02:55:26;8.43;;;2.00;;
51614;SDS011;37695;52.960;6.188;2023-05-16T02:57:52;10.93;;;2.25;;
51614;SDS011;37695;52.960;6.188;2023-05-16T03:00:18;9.75;;;2.15;;
51614;SDS011;37695;52.960;6.188;2023-05-16T03:02:43;10.98;;;2.28;;
51614;SDS011;37695;52.960;6.188;2023-05-16T03:05:09;9.90;;;2.78;;
51614;SDS011;37695;52.960;6.188;2023-05-16T03:07:35;5.13;;;1.50;;
51614;SDS011;37695;52.960;6.188;2023-05-16T03:10:02;7.25;;;1.70;;
51614;SDS011;37695;52.960;6.188;2023-05-16T03:12:28;5.80;;;1.92;;
51614;SDS011;37695;52.960;6.188;2023-05-16T03:14:54;7.93;;;1.88;;
51614;SDS011;37695;52.960;6.188;2023-05-16T03:17:19;9.48;;;1.85;;
51614;SDS011;37695;52.960;6.188;2023-05-16T03:19:45;12.70;;;2.85;;
51614;SDS011;37695;52.960;6.188;2023-05-16T03:22:10;7.40;;;1.88;;
51614;SDS011;37695;52.960;6.188;2023-05-16T03:24:36;9.15;;;2.33;;
51614;SDS011;37695;52.960;6.188;2023-05-16T03:27:01;9.77;;;2.15;;
51614;SDS011;37695;52.960;6.188;2023-05-16T03:29:28;10.73;;;1.90;;
51614;SDS011;37695;52.960;6.188;2023-05-16T03:31:54;7.53;;;1.88;;
51614;SDS011;37695;52.960;6.188;2023-05-16T03:34:20;9.45;;;2.13;;
51614;SDS011;37695;52.960;6.188;2023-05-16T03:36:46;7.05;;;1.70;;
51614;SDS011;37695;52.960;6.188;2023-05-16T03:39:16;8.70;;;2.42;;
51614;SDS011;37695;52.960;6.188;2023-05-16T03:41:42;7.68;;;2.15;;
51614;SDS011;37695;52.960;6.188;2023-05-16T03:44:08;9.90;;;1.95;;
51614;SDS011;37695;52.960;6.188;2023-05-16T03:46:34;9.20;;;2.50;;
51614;SDS011;37695;52.960;6.188;2023-05-16T03:49:00;10.35;;;1.95;;
51614;SDS011;37695;52.960;6.188;2023-05-16T03:51:26;6.75;;;2.47;;
51614;SDS011;37695;52.960;6.188;2023-05-16T03:53:52;5.68;;;2.10;;
51614;SDS011;37695;52.960;6.188;2023-05-16T03:56:18;6.10;;;1.63;;
51614;SDS011;37695;52.960;6.188;2023-05-16T03:58:43;10.63;;;2.40;;
51614;SDS011;37695;52.960;6.188;2023-05-16T04:01:09;7.90;;;1.77;;
51614;SDS011;37695;52.960;6.188;2023-05-16T04:03:34;10.98;;;2.05;;
51614;SDS011;37695;52.960;6.188;2023-05-16T04:06:02;8.18;;;2.65;;
51614;SDS011;37695;52.960;6.188;2023-05-16T04:08:28;11.02;;;2.33;;
51614;SDS011;37695;52.960;6.188;2023-05-16T04:10:53;12.40;;;2.42;;
51614;SDS011;37695;52.960;6.188;2023-05-16T04:13:19;9.48;;;1.92;;
51614;SDS011;37695;52.960;6.188;2023-05-16T04:15:45;8.75;;;1.83;;
51614;SDS011;37695;52.960;6.188;2023-05-16T04:18:11;6.82;;;1.90;;
51614;SDS011;37695;52.960;6.188;2023-05-16T04:20:37;9.13;;;2.72;;
51614;SDS011;37695;52.960;6.188;2023-05-16T04:23:02;11.10;;;2.38;;
51614;SDS011;37695;52.960;6.188;2023-05-16T04:25:28;9.10;;;2.25;;
51614;SDS011;37695;52.960;6.188;2023-05-16T04:27:53;7.25;;;1.77;;
51614;SDS011;37695;52.960;6.188;2023-05-16T04:30:19;5.63;;;1.58;;
51614;SDS011;37695;52.960;6.188;2023-05-16T04:32:44;8.98;;;2.15;;
51614;SDS011;37695;52.960;6.188;2023-05-16T04:35:10;6.32;;;1.67;;
51614;SDS011;37695;52.960;6.188;2023-05-16T04:37:36;6.57;;;1.90;;
51614;SDS011;37695;52.960;6.188;2023-05-16T04:40:02;7.30;;;2.22;;
51614;SDS011;37695;52.960;6.188;2023-05-16T04:42:27;9.77;;;1.65;;
51614;SDS011;37695;52.960;6.188;2023-05-16T04:44:53;6.50;;;1.95;;
51614;SDS011;37695;52.960;6.188;2023-05-16T04:47:20;8.57;;;2.00;;
51614;SDS011;37695;52.960;6.188;2023-05-16T04:49:45;7.00;;;1.92;;
51614;SDS011;37695;52.960;6.188;2023-05-16T04:52:11;5.65;;;1.70;;
51614;SDS011;37695;52.960;6.188;2023-05-16T04:54:37;9.63;;;1.98;;
51614;SDS011;37695;52.960;6.188;2023-05-16T04:57:03;7.90;;;2.00;;
51614;SDS011;37695;52.960;6.188;2023-05-16T04:59:28;5.93;;;2.15;;
51614;SDS011;37695;52.960;6.188;2023-05-16T05:01:54;7.90;;;2.13;;
51614;SDS011;37695;52.960;6.188;2023-05-16T05:04:20;10.95;;;2.03;;
51614;SDS011;37695;52.960;6.188;2023-05-16T05:06:46;8.23;;;1.98;;
51614;SDS011;37695;52.960;6.188;2023-05-16T05:09:12;10.18;;;2.78;;
51614;SDS011;37695;52.960;6.188;2023-05-16T05:11:37;8.10;;;2.08;;
51614;SDS011;37695;52.960;6.188;2023-05-16T05:14:03;8.30;;;1.80;;
51614;SDS011;37695;52.960;6.188;2023-05-16T05:16:28;6.47;;;2.10;;
51614;SDS011;37695;52.960;6.188;2023-05-16T05:18:54;7.60;;;1.50;;
51614;SDS011;37695;52.960;6.188;2023-05-16T05:21:20;8.23;;;1.67;;
51614;SDS011;37695;52.960;6.188;2023-05-16T05:23:46;5.63;;;1.95;;
51614;SDS011;37695;52.960;6.188;2023-05-16T05:26:13;12.93;;;3.28;;
51614;SDS011;37695;52.960;6.188;2023-05-16T05:28:39;8.88;;;2.13;;
51614;SDS011;37695;52.960;6.188;2023-05-16T05:31:05;5.93;;;1.70;;
51614;SDS011;37695;52.960;6.188;2023-05-16T05:33:32;6.40;;;1.95;;
51614;SDS011;37695;52.960;6.188;2023-05-16T05:35:57;4.95;;;1.67;;
51614;SDS011;37695;52.960;6.188;2023-05-16T05:38:23;7.43;;;2.28;;
51614;SDS011;37695;52.960;6.188;2023-05-16T05:40:48;8.50;;;1.90;;
51614;SDS011;37695;52.960;6.188;2023-05-16T05:43:14;5.10;;;1.60;;
51614;SDS011;37695;52.960;6.188;2023-05-16T05:45:40;12.73;;;2.38;;
51614;SDS011;37695;52.960;6.188;2023-05-16T05:48:06;5.10;;;1.77;;
51614;SDS011;37695;52.960;6.188;2023-05-16T05:50:32;7.97;;;2.00;;
51614;SDS011;37695;52.960;6.188;2023-05-16T05:52:58;9.48;;;2.15;;
51614;SDS011;37695;52.960;6.188;2023-05-16T05:55:23;5.70;;;1.65;;
51614;SDS011;37695;52.960;6.188;2023-05-16T05:57:49;8.55;;;1.83;;
51614;SDS011;37695;52.960;6.188;2023-05-16T06:00:15;6.07;;;1.90;;
51614;SDS011;37695;52.960;6.188;2023-05-16T06:02:41;5.30;;;1.50;;
51614;SDS011;37695;52.960;6.188;2023-05-16T06:05:06;8.60;;;1.88;;
51614;SDS011;37695;52.960;6.188;2023-05-16T06:07:32;5.60;;;1.58;;
51614;SDS011;37695;52.960;6.188;2023-05-16T06:09:58;7.60;;;1.58;;
51614;SDS011;37695;52.960;6.188;2023-05-16T06:12:28;5.65;;;1.83;;
51614;SDS011;37695;52.960;6.188;2023-05-16T06:14:53;6.22;;;2.05;;
51614;SDS011;37695;52.960;6.188;2023-05-16T06:17:19;9.20;;;2.30;;
51614;SDS011;37695;52.960;6.188;2023-05-16T06:19:45;8.82;;;2.25;;
51614;SDS011;37695;52.960;6.188;2023-05-16T06:22:11;4.88;;;1.48;;
51614;SDS011;37695;52.960;6.188;2023-05-16T06:24:36;7.35;;;1.58;;
51614;SDS011;37695;52.960;6.188;2023-05-16T06:27:02;5.05;;;1.80;;
51614;SDS011;37695;52.960;6.188;2023-05-16T06:29:27;5.80;;;1.50;;
51614;SDS011;37695;52.960;6.188;2023-05-16T06:31:53;7.50;;;1.52;;
51614;SDS011;37695;52.960;6.188;2023-05-16T06:34:18;6.32;;;1.50;;
51614;SDS011;37695;52.960;6.188;2023-05-16T06:36:47;8.00;;;1.67;;
51614;SDS011;37695;52.960;6.188;2023-05-16T06:39:13;6.82;;;1.60;;
51614;SDS011;37695;52.960;6.188;2023-05-16T06:41:38;6.00;;;1.50;;
51614;SDS011;37695;52.960;6.188;2023-05-16T06:44:04;3.10;;;1.17;;
51614;SDS011;37695;52.960;6.188;2023-05-16T06:46:30;6.03;;;1.52;;
51614;SDS011;37695;52.960;6.188;2023-05-16T06:48:55;7.50;;;1.25;;
51614;SDS011;37695;52.960;6.188;2023-05-16T06:51:21;6.45;;;1.75;;
51614;SDS011;37695;52.960;6.188;2023-05-16T06:53:47;4.15;;;1.50;;
51614;SDS011;37695;52.960;6.188;2023-05-16T06:56:12;6.75;;;1.77;;
51614;SDS011;37695;52.960;6.188;2023-05-16T06:58:38;6.03;;;1.55;;
51614;SDS011;37695;52.960;6.188;2023-05-16T07:01:03;5.70;;;1.58;;
51614;SDS011;37695;52.960;6.188;2023-05-16T07:03:29;5.82;;;1.38;;
51614;SDS011;37695;52.960;6.188;2023-05-16T07:05:55;4.38;;;1.35;;
51614;SDS011;37695;52.960;6.188;2023-05-16T07:08:22;6.40;;;1.27;;
51614;SDS011;37695;52.960;6.188;2023-05-16T07:10:48;4.50;;;1.67;;
51614;SDS011;37695;52.960;6.188;2023-05-16T07:13:13;2.13;;;0.98;;
51614;SDS011;37695;52.960;6.188;2023-05-16T07:15:39;3.72;;;1.20;;
51614;SDS011;37695;52.960;6.188;2023-05-16T07:18:05;2.95;;;1.20;;
51614;SDS011;37695;52.960;6.188;2023-05-16T07:20:30;3.25;;;1.27;;
51614;SDS011;37695;52.960;6.188;2023-05-16T07:22:56;3.20;;;1.23;;
51614;SDS011;37695;52.960;6.188;2023-05-16T07:25:22;5.07;;;1.25;;
51614;SDS011;37695;52.960;6.188;2023-05-16T07:27:48;5.30;;;1.30;;
51614;SDS011;37695;52.960;6.188;2023-05-16T07:30:13;7.30;;;1.83;;
51614;SDS011;37695;52.960;6.188;2023-05-16T07:32:39;6.00;;;1.40;;
51614;SDS011;37695;52.960;6.188;2023-05-16T07:35:05;7.28;;;1.73;;
51614;SDS011;37695;52.960;6.188;2023-05-16T07:37:31;6.07;;;1.60;;
51614;SDS011;37695;52.960;6.188;2023-05-16T07:39:57;6.93;;;1.85;;
51614;SDS011;37695;52.960;6.188;2023-05-16T07:42:23;8.50;;;1.55;;
51614;SDS011;37695;52.960;6.188;2023-05-16T07:44:49;4.95;;;1.73;;
51614;SDS011;37695;52.960;6.188;2023-05-16T07:47:14;6.65;;;1.75;;
51614;SDS011;37695;52.960;6.188;2023-05-16T07:49:40;12.23;;;2.20;;
51614;SDS011;37695;52.960;6.188;2023-05-16T07:52:06;5.90;;;1.95;;
51614;SDS011;37695;52.960;6.188;2023-05-16T07:54:33;6.53;;;1.88;;
51614;SDS011;37695;52.960;6.188;2023-05-16T07:56:59;6.80;;;1.70;;
51614;SDS011;37695;52.960;6.188;2023-05-16T07:59:25;7.97;;;1.85;;
51614;SDS011;37695;52.960;6.188;2023-05-16T08:01:50;12.10;;;2.00;;
51614;SDS011;37695;52.960;6.188;2023-05-16T08:04:16;8.73;;;2.00;;
51614;SDS011;37695;52.960;6.188;2023-05-16T08:06:42;8.50;;;2.13;;
51614;SDS011;37695;52.960;6.188;2023-05-16T08:09:07;10.30;;;1.85;;
51614;SDS011;37695;52.960;6.188;2023-05-16T08:11:33;8.05;;;2.00;;
51614;SDS011;37695;52.960;6.188;2023-05-16T08:13:59;9.32;;;2.00;;
51614;SDS011;37695;52.960;6.188;2023-05-16T08:16:25;8.48;;;1.70;;
51614;SDS011;37695;52.960;6.188;2023-05-16T08:18:50;9.55;;;1.88;;
51614;SDS011;37695;52.960;6.188;2023-05-16T08:21:16;12.90;;;2.38;;
51614;SDS011;37695;52.960;6.188;2023-05-16T08:23:41;7.13;;;1.73;;
51614;SDS011;37695;52.960;6.188;2023-05-16T08:26:07;5.78;;;1.98;;
51614;SDS011;37695;52.960;6.188;2023-05-16T08:28:32;5.90;;;1.45;;
51614;SDS011;37695;52.960;6.188;2023-05-16T08:30:58;8.50;;;2.13;;
51614;SDS011;37695;52.960;6.188;2023-05-16T08:33:24;5.10;;;1.80;;
51614;SDS011;37695;52.960;6.188;2023-05-16T08:35:50;6.07;;;1.65;;
51614;SDS011;37695;52.960;6.188;2023-05-16T08:38:17;6.05;;;1.52;;
51614;SDS011;37695;52.960;6.188;2023-05-16T08:40:42;5.50;;;1.67;;
51614;SDS011;37695;52.960;6.188;2023-05-16T08:43:09;6.13;;;1.48;;
51614;SDS011;37695;52.960;6.188;2023-05-16T08:45:35;4.47;;;1.48;;
51614;SDS011;37695;52.960;6.188;2023-05-16T08:48:01;6.43;;;1.60;;
51614;SDS011;37695;52.960;6.188;2023-05-16T08:50:30;5.38;;;1.42;;
51614;SDS011;37695;52.960;6.188;2023-05-16T08:52:56;5.53;;;1.65;;
51614;SDS011;37695;52.960;6.188;2023-05-16T08:55:22;6.07;;;1.67;;
51614;SDS011;37695;52.960;6.188;2023-05-16T08:57:50;6.13;;;1.73;;
51614;SDS011;37695;52.960;6.188;2023-05-16T09:00:18;8.70;;;2.03;;
51614;SDS011;37695;52.960;6.188;2023-05-16T09:02:44;5.80;;;1.40;;
51614;SDS011;37695;52.960;6.188;2023-05-16T09:05:11;5.25;;;1.50;;
51614;SDS011;37695;52.960;6.188;2023-05-16T09:07:38;6.18;;;1.80;;
51614;SDS011;37695;52.960;6.188;2023-05-16T09:10:07;7.88;;;1.42;;
51614;SDS011;37695;52.960;6.188;2023-05-16T09:12:33;8.27;;;1.60;;
51614;SDS011;37695;52.960;6.188;2023-05-16T09:15:03;7.72;;;1.73;;
51614;SDS011;37695;52.960;6.188;2023-05-16T09:17:34;6.70;;;1.52;;
51614;SDS011;37695;52.960;6.188;2023-05-16T09:20:07;7.32;;;1.67;;
51614;SDS011;37695;52.960;6.188;2023-05-16T09:22:34;12.57;;;1.88;;
51614;SDS011;37695;52.960;6.188;2023-05-16T09:25:00;7.35;;;1.60;;
51614;SDS011;37695;52.960;6.188;2023-05-16T09:27:25;5.65;;;1.52;;
51614;SDS011;37695;52.960;6.188;2023-05-16T09:29:54;5.65;;;1.45;;
51614;SDS011;37695;52.960;6.188;2023-05-16T09:32:22;4.93;;;1.60;;
51614;SDS011;37695;52.960;6.188;2023-05-16T09:34:48;3.25;;;1.20;;
51614;SDS011;37695;52.960;6.188;2023-05-16T09:37:15;3.88;;;1.48;;
51614;SDS011;37695;52.960;6.188;2023-05-16T09:39:59;8.07;;;1.50;;
51614;SDS011;37695;52.960;6.188;2023-05-16T09:42:25;4.20;;;1.20;;
51614;SDS011;37695;52.960;6.188;2023-05-16T09:44:51;6.97;;;1.50;;
51614;SDS011;37695;52.960;6.188;2023-05-16T09:47:19;5.63;;;1.50;;
51614;SDS011;37695;52.960;6.188;2023-05-16T09:49:46;6.97;;;2.08;;
51614;SDS011;37695;52.960;6.188;2023-05-16T09:52:18;6.65;;;1.70;;
51614;SDS011;37695;52.960;6.188;2023-05-16T09:54:44;6.45;;;1.67;;
51614;SDS011;37695;52.960;6.188;2023-05-16T09:57:16;7.57;;;1.70;;
51614;SDS011;37695;52.960;6.188;2023-05-16T09:59:51;4.13;;;1.60;;
51614;SDS011;37695;52.960;6.188;2023-05-16T10:02:16;10.35;;;1.83;;
51614;SDS011;37695;52.960;6.188;2023-05-16T10:04:43;8.05;;;1.40;;
51614;SDS011;37695;52.960;6.188;2023-05-16T10:07:08;7.82;;;1.67;;
51614;SDS011;37695;52.960;6.188;2023-05-16T10:09:35;3.92;;;1.35;;
51614;SDS011;37695;52.960;6.188;2023-05-16T10:12:04;6.40;;;1.58;;
51614;SDS011;37695;52.960;6.188;2023-05-16T10:14:33;5.72;;;1.70;;
51614;SDS011;37695;52.960;6.188;2023-05-16T10:17:03;5.90;;;1.73;;
51614;SDS011;37695;52.960;6.188;2023-05-16T10:19:31;3.45;;;1.35;;
51614;SDS011;37695;52.960;6.188;2023-05-16T10:22:02;7.22;;;1.60;;
51614;SDS011;37695;52.960;6.188;2023-05-16T10:24:36;4.32;;;1.70;;
51614;SDS011;37695;52.960;6.188;2023-05-16T10:27:10;4.68;;;1.50;;
51614;SDS011;37695;52.960;6.188;2023-05-16T10:29:37;3.55;;;1.75;;
51614;SDS011;37695;52.960;6.188;2023-05-16T10:32:04;5.32;;;1.38;;
51614;SDS011;37695;52.960;6.188;2023-05-16T10:34:32;6.75;;;1.55;;
51614;SDS011;37695;52.960;6.188;2023-05-16T10:36:58;7.80;;;1.42;;
51614;SDS011;37695;52.960;6.188;2023-05-16T10:39:24;5.80;;;1.88;;
51614;SDS011;37695;52.960;6.188;2023-05-16T10:41:51;3.88;;;1.45;;
51614;SDS011;37695;52.960;6.188;2023-05-16T10:44:17;5.93;;;1.63;;
51614;SDS011;37695;52.960;6.188;2023-05-16T10:46:43;6.78;;;1.77;;
51614;SDS011;37695;52.960;6.188;2023-05-16T10:49:20;5.30;;;1.70;;
51614;SDS011;37695;52.960;6.188;2023-05-16T10:52:03;8.65;;;1.67;;
51614;SDS011;37695;52.960;6.188;2023-05-16T10:54:34;6.05;;;1.88;;
51614;SDS011;37695;52.960;6.188;2023-05-16T10:57:05;5.38;;;1.40;;
51614;SDS011;37695;52.960;6.188;2023-05-16T10:59:48;7.53;;;1.45;;
51614;SDS011;37695;52.960;6.188;2023-05-16T11:02:26;5.82;;;1.67;;
51614;SDS011;37695;52.960;6.188;2023-05-16T11:04:54;6.85;;;2.08;;
51614;SDS011;37695;52.960;6.188;2023-05-16T11:07:21;6.22;;;1.77;;
51614;SDS011;37695;52.960;6.188;2023-05-16T11:15:01;4.82;;;1.58;;
51614;SDS011;37695;52.960;6.188;2023-05-16T11:17:45;5.82;;;1.63;;
51614;SDS011;37695;52.960;6.188;2023-05-16T11:20:24;6.93;;;1.85;;
51614;SDS011;37695;52.960;6.188;2023-05-16T11:23:19;5.28;;;1.52;;
51614;SDS011;37695;52.960;6.188;2023-05-16T11:25:53;5.90;;;2.00;;
51614;SDS011;37695;52.960;6.188;2023-05-16T11:28:20;7.05;;;1.80;;
51614;SDS011;37695;52.960;6.188;2023-05-16T11:30:48;7.13;;;1.85;;
51614;SDS011;37695;52.960;6.188;2023-05-16T11:33:16;5.15;;;1.40;;
51614;SDS011;37695;52.960;6.188;2023-05-16T11:35:42;7.07;;;1.80;;
51614;SDS011;37695;52.960;6.188;2023-05-16T11:38:23;4.78;;;1.60;;
51614;SDS011;37695;52.960;6.188;2023-05-16T11:40:49;3.70;;;1.58;;
51614;SDS011;37695;52.960;6.188;2023-05-16T11:43:17;4.97;;;1.35;;
51614;SDS011;37695;52.960;6.188;2023-05-16T11:45:43;5.88;;;1.77;;
51614;SDS011;37695;52.960;6.188;2023-05-16T11:48:09;6.13;;;1.85;;
51614;SDS011;37695;52.960;6.188;2023-05-16T11:50:35;3.75;;;1.70;;
51614;SDS011;37695;52.960;6.188;2023-05-16T11:53:00;8.27;;;2.05;;
51614;SDS011;37695;52.960;6.188;2023-05-16T11:55:27;5.88;;;1.90;;
51614;SDS011;37695;52.960;6.188;2023-05-16T11:57:57;6.70;;;1.88;;
51614;SDS011;37695;52.960;6.188;2023-05-16T12:00:23;5.88;;;1.80;;
51614;SDS011;37695;52.960;6.188;2023-05-16T12:02:51;6.10;;;1.80;;
51614;SDS011;37695;52.960;6.188;2023-05-16T12:05:25;7.10;;;1.73;;
51614;SDS011;37695;52.960;6.188;2023-05-16T12:07:52;4.35;;;1.60;;
51614;SDS011;37695;52.960;6.188;2023-05-16T12:10:18;4.85;;;1.98;;
51614;SDS011;37695;52.960;6.188;2023-05-16T12:12:46;7.15;;;1.80;;
51614;SDS011;37695;52.960;6.188;2023-05-16T12:15:13;6.63;;;2.00;;
51614;SDS011;37695;52.960;6.188;2023-05-16T12:17:40;4.90;;;1.75;;
51614;SDS011;37695;52.960;6.188;2023-05-16T12:20:06;4.43;;;2.17;;
51614;SDS011;37695;52.960;6.188;2023-05-16T12:22:42;5.50;;;1.90;;
51614;SDS011;37695;52.960;6.188;2023-05-16T12:25:27;6.25;;;2.22;;
51614;SDS011;37695;52.960;6.188;2023-05-16T12:27:57;6.40;;;2.22;;
51614;SDS011;37695;52.960;6.188;2023-05-16T12:30:27;7.72;;;2.58;;
51614;SDS011;37695;52.960;6.188;2023-05-16T12:33:00;6.65;;;2.42;;
51614;SDS011;37695;52.960;6.188;2023-05-16T12:35:31;5.78;;;2.05;;
51614;SDS011;37695;52.960;6.188;2023-05-16T12:38:07;6.10;;;2.22;;
51614;SDS011;37695;52.960;6.188;2023-05-16T12:40:38;3.90;;;2.10;;
51614;SDS011;37695;52.960;6.188;2023-05-16T12:43:26;5.45;;;2.53;;
51614;SDS011;37695;52.960;6.188;2023-05-16T12:45:52;7.03;;;2.40;;
51614;SDS011;37695;52.960;6.188;2023-05-16T12:48:22;6.32;;;2.65;;
51614;SDS011;37695;52.960;6.188;2023-05-16T12:50:53;5.10;;;2.10;;
51614;SDS011;37695;52.960;6.188;2023-05-16T12:53:19;6.25;;;2.25;;
51614;SDS011;37695;52.960;6.188;2023-05-16T12:55:45;6.00;;;2.38;;
51614;SDS011;37695;52.960;6.188;2023-05-16T12:58:11;5.00;;;2.28;;
51614;SDS011;37695;52.960;6.188;2023-05-16T13:00:37;7.88;;;2.45;;
51614;SDS011;37695;52.960;6.188;2023-05-16T13:03:03;5.55;;;2.65;;
51614;SDS011;37695;52.960;6.188;2023-05-16T13:05:30;5.32;;;2.85;;
51614;SDS011;37695;52.960;6.188;2023-05-16T13:07:55;5.38;;;2.70;;
51614;SDS011;37695;52.960;6.188;2023-05-16T13:10:21;9.35;;;3.40;;
51614;SDS011;37695;52.960;6.188;2023-05-16T13:12:47;6.88;;;2.60;;
51614;SDS011;37695;52.960;6.188;2023-05-16T13:15:12;8.00;;;3.13;;
51614;SDS011;37695;52.960;6.188;2023-05-16T13:17:40;6.18;;;2.92;;
51614;SDS011;37695;52.960;6.188;2023-05-16T13:20:07;6.20;;;2.75;;
51614;SDS011;37695;52.960;6.188;2023-05-16T13:22:36;7.13;;;2.80;;
51614;SDS011;37695;52.960;6.188;2023-05-16T13:25:02;6.85;;;2.33;;
51614;SDS011;37695;52.960;6.188;2023-05-16T13:27:28;8.63;;;2.88;;
51614;SDS011;37695;52.960;6.188;2023-05-16T13:29:54;6.85;;;2.90;;
51614;SDS011;37695;52.960;6.188;2023-05-16T13:32:20;6.65;;;2.75;;
51614;SDS011;37695;52.960;6.188;2023-05-16T13:34:46;8.15;;;2.53;;
51614;SDS011;37695;52.960;6.188;2023-05-16T13:37:11;6.57;;;2.78;;
51614;SDS011;37695;52.960;6.188;2023-05-16T13:39:37;7.15;;;3.00;;
51614;SDS011;37695;52.960;6.188;2023-05-16T13:42:02;5.78;;;2.80;;
51614;SDS011;37695;52.960;6.188;2023-05-16T13:44:28;9.73;;;3.03;;
51614;SDS011;37695;52.960;6.188;2023-05-16T13:46:54;6.43;;;2.63;;
51614;SDS011;37695;52.960;6.188;2023-05-16T13:49:21;9.00;;;3.50;;
51614;SDS011;37695;52.960;6.188;2023-05-16T13:51:47;6.97;;;3.28;;
51614;SDS011;37695;52.960;6.188;2023-05-16T13:54:13;7.03;;;3.85;;
51614;SDS011;37695;52.960;6.188;2023-05-16T13:56:38;7.57;;;3.80;;
51614;SDS011;37695;52.960;6.188;2023-05-16T13:59:04;7.90;;;3.10;;
51614;SDS011;37695;52.960;6.188;2023-05-16T14:01:30;6.40;;;3.75;;
51614;SDS011;37695;52.960;6.188;2023-05-16T14:03:55;8.90;;;3.88;;
51614;SDS011;37695;52.960;6.188;2023-05-16T14:06:21;9.10;;;3.53;;
51614;SDS011;37695;52.960;6.188;2023-05-16T14:08:47;8.40;;;3.25;;
51614;SDS011;37695;52.960;6.188;2023-05-16T14:11:12;7.15;;;2.92;;
51614;SDS011;37695;52.960;6.188;2023-05-16T14:13:38;6.80;;;2.97;;
51614;SDS011;37695;52.960;6.188;2023-05-16T14:16:06;8.55;;;3.22;;
51614;SDS011;37695;52.960;6.188;2023-05-16T14:18:32;7.07;;;3.60;;
51614;SDS011;37695;52.960;6.188;2023-05-16T14:20:57;5.47;;;2.85;;
51614;SDS011;37695;52.960;6.188;2023-05-16T14:23:23;10.15;;;3.30;;
51614;SDS011;37695;52.960;6.188;2023-05-16T14:25:48;5.55;;;2.90;;
51614;SDS011;37695;52.960;6.188;2023-05-16T14:28:14;6.60;;;3.22;;
51614;SDS011;37695;52.960;6.188;2023-05-16T14:30:39;17.15;;;3.85;;
51614;SDS011;37695;52.960;6.188;2023-05-16T14:33:05;4.97;;;2.35;;
51614;SDS011;37695;52.960;6.188;2023-05-16T14:35:31;6.22;;;2.88;;
51614;SDS011;37695;52.960;6.188;2023-05-16T14:37:57;4.80;;;2.65;;
51614;SDS011;37695;52.960;6.188;2023-05-16T14:40:22;8.43;;;2.78;;
51614;SDS011;37695;52.960;6.188;2023-05-16T14:42:48;6.15;;;2.58;;
51614;SDS011;37695;52.960;6.188;2023-05-16T14:45:14;5.60;;;2.42;;
51614;SDS011;37695;52.960;6.188;2023-05-16T14:47:40;7.15;;;2.60;;
51614;SDS011;37695;52.960;6.188;2023-05-16T14:50:06;6.43;;;2.35;;
51614;SDS011;37695;52.960;6.188;2023-05-16T14:52:32;7.07;;;2.63;;
51614;SDS011;37695;52.960;6.188;2023-05-16T14:54:58;6.55;;;3.00;;
51614;SDS011;37695;52.960;6.188;2023-05-16T14:57:24;6.72;;;2.30;;
51614;SDS011;37695;52.960;6.188;2023-05-16T14:59:50;7.43;;;2.38;;
51614;SDS011;37695;52.960;6.188;2023-05-16T15:02:16;6.82;;;2.10;;